sensor_id;sensor_type;location;lat;lon;timestamp;P1;durP1;ratioP1;P2;durP2;ratioP2
18023;SDS011;9137;50.960;3.118;2022-08-11T00:00:59;4.15;;;3.63;;
18023;SDS011;9137;50.960;3.118;2022-08-11T00:03:31;4.90;;;3.70;;
18023;SDS011;9137;50.960;3.118;2022-08-11T00:06:00;4.80;;;3.80;;
18023;SDS011;9137;50.960;3.118;2022-08-11T00:08:28;5.82;;;4.28;;
18023;SDS011;9137;50.960;3.118;2022-08-11T00:11:01;4.22;;;3.70;;
18023;SDS011;9137;50.960;3.118;2022-08-11T00:13:31;4.07;;;3.67;;
18023;SDS011;9137;50.960;3.118;2022-08-11T00:16:00;5.05;;;3.95;;
18023;SDS011;9137;50.960;3.118;2022-08-11T00:18:28;4.35;;;3.63;;
18023;SDS011;9137;50.960;3.118;2022-08-11T00:21:04;4.57;;;3.97;;
18023;SDS011;9137;50.960;3.118;2022-08-11T00:23:32;4.82;;;3.70;;
18023;SDS011;9137;50.960;3.118;2022-08-11T00:26:05;5.10;;;3.83;;
18023;SDS011;9137;50.960;3.118;2022-08-11T00:28:33;5.03;;;3.70;;
18023;SDS011;9137;50.960;3.118;2022-08-11T00:31:02;4.50;;;4.10;;
18023;SDS011;9137;50.960;3.118;2022-08-11T00:33:33;5.63;;;4.22;;
18023;SDS011;9137;50.960;3.118;2022-08-11T00:36:03;5.00;;;4.40;;
18023;SDS011;9137;50.960;3.118;2022-08-11T00:38:34;5.03;;;3.95;;
18023;SDS011;9137;50.960;3.118;2022-08-11T00:41:09;4.47;;;3.97;;
18023;SDS011;9137;50.960;3.118;2022-08-11T00:43:49;4.25;;;3.85;;
18023;SDS011;9137;50.960;3.118;2022-08-11T00:46:31;5.95;;;3.95;;
18023;SDS011;9137;50.960;3.118;2022-08-11T00:49:08;4.13;;;3.72;;
18023;SDS011;9137;50.960;3.118;2022-08-11T00:51:47;4.97;;;4.47;;
18023;SDS011;9137;50.960;3.118;2022-08-11T00:54:29;4.25;;;3.80;;
18023;SDS011;9137;50.960;3.118;2022-08-11T00:57:15;6.17;;;4.50;;
18023;SDS011;9137;50.960;3.118;2022-08-11T01:00:05;4.90;;;4.43;;
18023;SDS011;9137;50.960;3.118;2022-08-11T01:02:47;4.93;;;4.25;;
18023;SDS011;9137;50.960;3.118;2022-08-11T01:05:37;5.13;;;4.55;;
18023;SDS011;9137;50.960;3.118;2022-08-11T01:11:24;4.78;;;4.28;;
18023;SDS011;9137;50.960;3.118;2022-08-11T01:14:44;5.13;;;4.43;;
18023;SDS011;9137;50.960;3.118;2022-08-11T01:17:44;4.93;;;4.40;;
18023;SDS011;9137;50.960;3.118;2022-08-11T01:20:52;4.80;;;4.40;;
18023;SDS011;9137;50.960;3.118;2022-08-11T01:30:09;5.85;;;5.13;;
18023;SDS011;9137;50.960;3.118;2022-08-11T01:39:25;5.28;;;4.55;;
18023;SDS011;9137;50.960;3.118;2022-08-11T01:45:54;5.47;;;4.97;;
18023;SDS011;9137;50.960;3.118;2022-08-11T01:48:29;5.50;;;4.68;;
18023;SDS011;9137;50.960;3.118;2022-08-11T01:51:12;6.25;;;4.72;;
18023;SDS011;9137;50.960;3.118;2022-08-11T01:53:51;5.35;;;4.85;;
18023;SDS011;9137;50.960;3.118;2022-08-11T01:56:39;5.22;;;4.72;;
18023;SDS011;9137;50.960;3.118;2022-08-11T01:59:16;4.80;;;4.40;;
18023;SDS011;9137;50.960;3.118;2022-08-11T02:02:04;5.10;;;4.70;;
18023;SDS011;9137;50.960;3.118;2022-08-11T02:04:45;6.85;;;5.07;;
18023;SDS011;9137;50.960;3.118;2022-08-11T02:07:21;5.35;;;4.85;;
18023;SDS011;9137;50.960;3.118;2022-08-11T02:10:00;5.72;;;5.13;;
18023;SDS011;9137;50.960;3.118;2022-08-11T02:12:52;5.78;;;5.22;;
18023;SDS011;9137;50.960;3.118;2022-08-11T02:15:25;6.67;;;5.13;;
18023;SDS011;9137;50.960;3.118;2022-08-11T02:18:03;6.53;;;4.75;;
18023;SDS011;9137;50.960;3.118;2022-08-11T02:20:34;5.82;;;5.32;;
18023;SDS011;9137;50.960;3.118;2022-08-11T02:23:25;5.40;;;4.90;;
18023;SDS011;9137;50.960;3.118;2022-08-11T02:26:12;5.30;;;4.88;;
18023;SDS011;9137;50.960;3.118;2022-08-11T02:28:50;5.90;;;4.80;;
18023;SDS011;9137;50.960;3.118;2022-08-11T02:31:26;6.50;;;5.55;;
18023;SDS011;9137;50.960;3.118;2022-08-11T02:34:27;5.60;;;4.78;;
18023;SDS011;9137;50.960;3.118;2022-08-11T02:37:09;5.93;;;5.05;;
18023;SDS011;9137;50.960;3.118;2022-08-11T02:39:45;5.20;;;4.70;;
18023;SDS011;9137;50.960;3.118;2022-08-11T02:42:28;5.70;;;5.20;;
18023;SDS011;9137;50.960;3.118;2022-08-11T02:45:10;5.70;;;5.20;;
18023;SDS011;9137;50.960;3.118;2022-08-11T02:47:54;5.55;;;5.05;;
18023;SDS011;9137;50.960;3.118;2022-08-11T02:50:48;6.22;;;5.63;;
18023;SDS011;9137;50.960;3.118;2022-08-11T02:53:31;5.95;;;5.35;;
18023;SDS011;9137;50.960;3.118;2022-08-11T02:56:07;6.88;;;5.45;;
18023;SDS011;9137;50.960;3.118;2022-08-11T02:58:43;6.03;;;5.43;;
18023;SDS011;9137;50.960;3.118;2022-08-11T03:01:40;6.05;;;5.45;;
18023;SDS011;9137;50.960;3.118;2022-08-11T03:04:12;5.33;;;4.83;;
18023;SDS011;9137;50.960;3.118;2022-08-11T03:06:47;6.35;;;5.57;;
18023;SDS011;9137;50.960;3.118;2022-08-11T03:09:17;6.00;;;5.50;;
18023;SDS011;9137;50.960;3.118;2022-08-11T03:11:51;6.70;;;5.70;;
18023;SDS011;9137;50.960;3.118;2022-08-11T03:15:00;6.20;;;5.60;;
18023;SDS011;9137;50.960;3.118;2022-08-11T03:17:55;6.47;;;5.88;;
18023;SDS011;9137;50.960;3.118;2022-08-11T03:20:31;6.43;;;5.13;;
18023;SDS011;9137;50.960;3.118;2022-08-11T03:23:05;6.05;;;5.55;;
18023;SDS011;9137;50.960;3.118;2022-08-11T03:25:38;6.55;;;5.47;;
18023;SDS011;9137;50.960;3.118;2022-08-11T03:28:19;6.70;;;5.70;;
18023;SDS011;9137;50.960;3.118;2022-08-11T03:30:53;6.25;;;5.68;;
18023;SDS011;9137;50.960;3.118;2022-08-11T03:33:37;6.95;;;5.50;;
18023;SDS011;9137;50.960;3.118;2022-08-11T03:36:42;7.80;;;5.90;;
18023;SDS011;9137;50.960;3.118;2022-08-11T03:39:39;5.93;;;5.43;;
18023;SDS011;9137;50.960;3.118;2022-08-11T03:42:15;6.38;;;5.72;;
18023;SDS011;9137;50.960;3.118;2022-08-11T03:47:52;5.75;;;5.25;;
18023;SDS011;9137;50.960;3.118;2022-08-11T03:50:46;6.75;;;5.82;;
18023;SDS011;9137;50.960;3.118;2022-08-11T03:53:23;6.68;;;6.07;;
18023;SDS011;9137;50.960;3.118;2022-08-11T03:56:19;6.78;;;6.10;;
18023;SDS011;9137;50.960;3.118;2022-08-11T03:59:11;7.00;;;5.85;;
18023;SDS011;9137;50.960;3.118;2022-08-11T04:02:03;6.60;;;5.50;;
18023;SDS011;9137;50.960;3.118;2022-08-11T04:04:52;6.55;;;5.50;;
18023;SDS011;9137;50.960;3.118;2022-08-11T04:11:04;6.60;;;5.73;;
18023;SDS011;9137;50.960;3.118;2022-08-11T04:20:18;6.90;;;6.28;;
18023;SDS011;9137;50.960;3.118;2022-08-11T04:22:59;6.00;;;5.50;;
18023;SDS011;9137;50.960;3.118;2022-08-11T04:25:50;5.82;;;5.22;;
18023;SDS011;9137;50.960;3.118;2022-08-11T04:28:43;6.68;;;5.95;;
18023;SDS011;9137;50.960;3.118;2022-08-11T04:34:04;8.68;;;6.13;;
18023;SDS011;9137;50.960;3.118;2022-08-11T04:43:30;8.32;;;5.60;;
18023;SDS011;9137;50.960;3.118;2022-08-11T04:46:25;8.30;;;6.07;;
18023;SDS011;9137;50.960;3.118;2022-08-11T04:52:27;6.25;;;5.63;;
18023;SDS011;9137;50.960;3.118;2022-08-11T04:55:41;7.35;;;6.00;;
18023;SDS011;9137;50.960;3.118;2022-08-11T04:58:51;6.90;;;6.20;;
18023;SDS011;9137;50.960;3.118;2022-08-11T05:01:53;8.85;;;5.57;;
18023;SDS011;9137;50.960;3.118;2022-08-11T05:04:40;6.65;;;5.95;;
18023;SDS011;9137;50.960;3.118;2022-08-11T05:11:17;7.13;;;6.43;;
18023;SDS011;9137;50.960;3.118;2022-08-11T05:14:21;7.63;;;6.53;;
18023;SDS011;9137;50.960;3.118;2022-08-11T05:17:14;6.82;;;6.18;;
18023;SDS011;9137;50.960;3.118;2022-08-11T05:20:07;7.60;;;6.88;;
18023;SDS011;9137;50.960;3.118;2022-08-11T05:22:53;9.07;;;6.45;;
18023;SDS011;9137;50.960;3.118;2022-08-11T05:25:43;7.22;;;6.53;;
18023;SDS011;9137;50.960;3.118;2022-08-11T05:28:31;8.55;;;7.32;;
18023;SDS011;9137;50.960;3.118;2022-08-11T05:31:20;7.82;;;7.00;;
18023;SDS011;9137;50.960;3.118;2022-08-11T05:34:10;6.40;;;5.80;;
18023;SDS011;9137;50.960;3.118;2022-08-11T05:37:01;8.27;;;6.97;;
18023;SDS011;9137;50.960;3.118;2022-08-11T05:39:32;8.88;;;5.93;;
18023;SDS011;9137;50.960;3.118;2022-08-11T05:42:23;7.43;;;6.47;;
18023;SDS011;9137;50.960;3.118;2022-08-11T05:45:10;8.57;;;6.55;;
18023;SDS011;9137;50.960;3.118;2022-08-11T05:47:58;7.00;;;6.30;;
18023;SDS011;9137;50.960;3.118;2022-08-11T05:50:48;9.35;;;6.60;;
18023;SDS011;9137;50.960;3.118;2022-08-11T05:53:35;7.60;;;6.70;;
18023;SDS011;9137;50.960;3.118;2022-08-11T05:56:28;7.72;;;6.40;;
18023;SDS011;9137;50.960;3.118;2022-08-11T05:58:56;9.68;;;6.65;;
18023;SDS011;9137;50.960;3.118;2022-08-11T06:01:24;7.22;;;6.15;;
18023;SDS011;9137;50.960;3.118;2022-08-11T06:03:58;6.88;;;6.18;;
18023;SDS011;9137;50.960;3.118;2022-08-11T06:06:45;7.00;;;6.30;;
18023;SDS011;9137;50.960;3.118;2022-08-11T06:09:23;7.10;;;6.20;;
18023;SDS011;9137;50.960;3.118;2022-08-11T06:11:53;7.00;;;6.25;;
18023;SDS011;9137;50.960;3.118;2022-08-11T06:14:23;7.72;;;6.75;;
18023;SDS011;9137;50.960;3.118;2022-08-11T06:16:53;7.25;;;6.55;;
18023;SDS011;9137;50.960;3.118;2022-08-11T06:19:31;9.40;;;6.25;;
18023;SDS011;9137;50.960;3.118;2022-08-11T06:22:00;7.65;;;6.75;;
18023;SDS011;9137;50.960;3.118;2022-08-11T06:24:29;6.70;;;6.03;;
18023;SDS011;9137;50.960;3.118;2022-08-11T06:26:57;7.05;;;6.10;;
18023;SDS011;9137;50.960;3.118;2022-08-11T06:29:25;8.48;;;6.38;;
18023;SDS011;9137;50.960;3.118;2022-08-11T06:31:54;11.15;;;7.00;;
18023;SDS011;9137;50.960;3.118;2022-08-11T06:34:27;6.97;;;6.00;;
18023;SDS011;9137;50.960;3.118;2022-08-11T06:37:13;8.85;;;6.70;;
18023;SDS011;9137;50.960;3.118;2022-08-11T06:39:49;7.03;;;5.80;;
18023;SDS011;9137;50.960;3.118;2022-08-11T06:42:27;12.65;;;6.95;;
18023;SDS011;9137;50.960;3.118;2022-08-11T06:45:15;9.27;;;6.18;;
18023;SDS011;9137;50.960;3.118;2022-08-11T06:47:51;7.10;;;5.77;;
18023;SDS011;9137;50.960;3.118;2022-08-11T06:50:21;7.07;;;5.70;;
18023;SDS011;9137;50.960;3.118;2022-08-11T06:53:06;7.65;;;5.82;;
18023;SDS011;9137;50.960;3.118;2022-08-11T06:55:37;7.93;;;5.97;;
18023;SDS011;9137;50.960;3.118;2022-08-11T06:58:25;8.00;;;5.63;;
18023;SDS011;9137;50.960;3.118;2022-08-11T07:01:13;12.20;;;6.15;;
18023;SDS011;9137;50.960;3.118;2022-08-11T07:03:45;6.88;;;5.25;;
18023;SDS011;9137;50.960;3.118;2022-08-11T07:06:24;6.35;;;5.75;;
18023;SDS011;9137;50.960;3.118;2022-08-11T07:09:06;6.22;;;5.47;;
18023;SDS011;9137;50.960;3.118;2022-08-11T07:15:23;5.97;;;5.47;;
18023;SDS011;9137;50.960;3.118;2022-08-11T07:18:10;7.28;;;5.57;;
18023;SDS011;9137;50.960;3.118;2022-08-11T07:21:05;10.30;;;4.90;;
18023;SDS011;9137;50.960;3.118;2022-08-11T07:23:59;6.22;;;4.78;;
18023;SDS011;9137;50.960;3.118;2022-08-11T07:26:48;5.28;;;4.60;;
18023;SDS011;9137;50.960;3.118;2022-08-11T07:29:36;8.80;;;5.60;;
18023;SDS011;9137;50.960;3.118;2022-08-11T07:32:08;6.93;;;5.38;;
18023;SDS011;9137;50.960;3.118;2022-08-11T07:34:44;6.63;;;5.78;;
18023;SDS011;9137;50.960;3.118;2022-08-11T07:37:18;5.80;;;5.00;;
18023;SDS011;9137;50.960;3.118;2022-08-11T07:39:49;7.70;;;4.95;;
18023;SDS011;9137;50.960;3.118;2022-08-11T07:42:19;6.45;;;5.40;;
18023;SDS011;9137;50.960;3.118;2022-08-11T07:44:49;6.20;;;5.53;;
18023;SDS011;9137;50.960;3.118;2022-08-11T07:47:35;6.63;;;4.93;;
18023;SDS011;9137;50.960;3.118;2022-08-11T07:50:20;10.05;;;5.88;;
18023;SDS011;9137;50.960;3.118;2022-08-11T07:53:05;7.25;;;5.45;;
18023;SDS011;9137;50.960;3.118;2022-08-11T07:55:34;7.32;;;5.57;;
18023;SDS011;9137;50.960;3.118;2022-08-11T07:58:02;6.97;;;5.47;;
18023;SDS011;9137;50.960;3.118;2022-08-11T08:00:49;5.88;;;4.60;;
18023;SDS011;9137;50.960;3.118;2022-08-11T08:03:36;5.65;;;5.05;;
18023;SDS011;9137;50.960;3.118;2022-08-11T08:06:21;8.13;;;4.90;;
18023;SDS011;9137;50.960;3.118;2022-08-11T08:09:06;7.00;;;5.05;;
18023;SDS011;9137;50.960;3.118;2022-08-11T08:11:53;8.75;;;4.65;;
18023;SDS011;9137;50.960;3.118;2022-08-11T08:14:38;6.90;;;4.50;;
18023;SDS011;9137;50.960;3.118;2022-08-11T08:17:23;6.22;;;4.38;;
18023;SDS011;9137;50.960;3.118;2022-08-11T08:20:10;5.23;;;4.70;;
18023;SDS011;9137;50.960;3.118;2022-08-11T08:22:40;5.18;;;4.32;;
18023;SDS011;9137;50.960;3.118;2022-08-11T08:25:08;5.72;;;4.22;;
18023;SDS011;9137;50.960;3.118;2022-08-11T08:27:37;8.63;;;4.30;;
18023;SDS011;9137;50.960;3.118;2022-08-11T08:30:07;5.25;;;4.40;;
18023;SDS011;9137;50.960;3.118;2022-08-11T08:32:52;6.13;;;4.00;;
18023;SDS011;9137;50.960;3.118;2022-08-11T08:35:21;5.53;;;3.95;;
18023;SDS011;9137;50.960;3.118;2022-08-11T08:37:49;5.47;;;3.92;;
18023;SDS011;9137;50.960;3.118;2022-08-11T08:40:16;7.35;;;4.18;;
18023;SDS011;9137;50.960;3.118;2022-08-11T08:42:46;4.30;;;3.35;;
18023;SDS011;9137;50.960;3.118;2022-08-11T08:45:17;6.78;;;3.47;;
18023;SDS011;9137;50.960;3.118;2022-08-11T08:47:46;5.95;;;3.63;;
18023;SDS011;9137;50.960;3.118;2022-08-11T08:50:19;4.28;;;3.67;;
18023;SDS011;9137;50.960;3.118;2022-08-11T08:52:51;4.95;;;3.30;;
18023;SDS011;9137;50.960;3.118;2022-08-11T08:55:21;10.07;;;4.77;;
18023;SDS011;9137;50.960;3.118;2022-08-11T08:57:51;5.22;;;2.55;;
18023;SDS011;9137;50.960;3.118;2022-08-11T09:00:22;3.80;;;3.03;;
18023;SDS011;9137;50.960;3.118;2022-08-11T09:02:49;5.30;;;3.03;;
18023;SDS011;9137;50.960;3.118;2022-08-11T09:05:17;3.50;;;2.97;;
18023;SDS011;9137;50.960;3.118;2022-08-11T09:07:45;4.32;;;2.72;;
18023;SDS011;9137;50.960;3.118;2022-08-11T09:10:16;3.22;;;2.92;;
18023;SDS011;9137;50.960;3.118;2022-08-11T09:12:45;4.90;;;2.60;;
18023;SDS011;9137;50.960;3.118;2022-08-11T09:15:14;3.72;;;2.50;;
18023;SDS011;9137;50.960;3.118;2022-08-11T09:17:44;3.92;;;3.35;;
18023;SDS011;9137;50.960;3.118;2022-08-11T09:20:12;4.57;;;2.85;;
18023;SDS011;9137;50.960;3.118;2022-08-11T09:22:43;3.17;;;2.97;;
18023;SDS011;9137;50.960;3.118;2022-08-11T09:25:29;4.82;;;2.78;;
18023;SDS011;9137;50.960;3.118;2022-08-11T09:28:15;4.23;;;3.20;;
18023;SDS011;9137;50.960;3.118;2022-08-11T09:30:45;4.45;;;2.80;;
18023;SDS011;9137;50.960;3.118;2022-08-11T09:33:17;2.78;;;2.58;;
18023;SDS011;9137;50.960;3.118;2022-08-11T09:35:46;3.27;;;2.70;;
18023;SDS011;9137;50.960;3.118;2022-08-11T09:38:16;6.55;;;2.70;;
18023;SDS011;9137;50.960;3.118;2022-08-11T09:41:02;11.13;;;3.40;;
18023;SDS011;9137;50.960;3.118;2022-08-11T09:43:34;4.97;;;2.60;;
18023;SDS011;9137;50.960;3.118;2022-08-11T09:46:24;5.03;;;3.17;;
18023;SDS011;9137;50.960;3.118;2022-08-11T09:48:53;3.72;;;2.53;;
18023;SDS011;9137;50.960;3.118;2022-08-11T09:51:24;6.60;;;2.65;;
18023;SDS011;9137;50.960;3.118;2022-08-11T09:53:54;3.03;;;2.47;;
18023;SDS011;9137;50.960;3.118;2022-08-11T09:56:24;5.28;;;2.65;;
18023;SDS011;9137;50.960;3.118;2022-08-11T09:59:11;7.03;;;3.00;;
18023;SDS011;9137;50.960;3.118;2022-08-11T10:01:42;6.30;;;2.80;;
18023;SDS011;9137;50.960;3.118;2022-08-11T10:04:14;3.65;;;2.85;;
18023;SDS011;9137;50.960;3.118;2022-08-11T10:06:43;4.00;;;2.50;;
18023;SDS011;9137;50.960;3.118;2022-08-11T10:09:33;2.97;;;2.30;;
18023;SDS011;9137;50.960;3.118;2022-08-11T10:12:04;5.75;;;2.60;;
18023;SDS011;9137;50.960;3.118;2022-08-11T10:14:34;3.67;;;2.70;;
18023;SDS011;9137;50.960;3.118;2022-08-11T10:17:25;4.53;;;2.85;;
18023;SDS011;9137;50.960;3.118;2022-08-11T10:19:58;2.95;;;2.70;;
18023;SDS011;9137;50.960;3.118;2022-08-11T10:22:32;5.50;;;2.50;;
18023;SDS011;9137;50.960;3.118;2022-08-11T10:25:19;5.05;;;2.70;;
18023;SDS011;9137;50.960;3.118;2022-08-11T10:28:03;5.60;;;2.58;;
18023;SDS011;9137;50.960;3.118;2022-08-11T10:30:33;2.60;;;2.38;;
18023;SDS011;9137;50.960;3.118;2022-08-11T10:33:19;4.00;;;2.50;;
18023;SDS011;9137;50.960;3.118;2022-08-11T10:36:04;4.03;;;2.50;;
18023;SDS011;9137;50.960;3.118;2022-08-11T10:38:33;3.23;;;2.50;;
18023;SDS011;9137;50.960;3.118;2022-08-11T10:41:01;4.22;;;2.42;;
18023;SDS011;9137;50.960;3.118;2022-08-11T10:43:46;5.95;;;2.55;;
18023;SDS011;9137;50.960;3.118;2022-08-11T10:46:13;3.83;;;2.80;;
18023;SDS011;9137;50.960;3.118;2022-08-11T10:49:00;4.05;;;2.42;;
18023;SDS011;9137;50.960;3.118;2022-08-11T10:51:27;2.33;;;2.13;;
18023;SDS011;9137;50.960;3.118;2022-08-11T10:54:13;2.45;;;2.25;;
18023;SDS011;9137;50.960;3.118;2022-08-11T10:56:58;2.78;;;2.58;;
18023;SDS011;9137;50.960;3.118;2022-08-11T10:59:43;2.55;;;2.30;;
18023;SDS011;9137;50.960;3.118;2022-08-11T11:02:12;3.67;;;2.50;;
18023;SDS011;9137;50.960;3.118;2022-08-11T11:04:46;3.10;;;2.53;;
18023;SDS011;9137;50.960;3.118;2022-08-11T11:07:24;5.72;;;2.67;;
18023;SDS011;9137;50.960;3.118;2022-08-11T11:10:01;4.72;;;2.75;;
18023;SDS011;9137;50.960;3.118;2022-08-11T11:12:30;4.78;;;2.58;;
18023;SDS011;9137;50.960;3.118;2022-08-11T11:15:18;4.47;;;2.23;;
18023;SDS011;9137;50.960;3.118;2022-08-11T11:18:05;3.80;;;2.50;;
18023;SDS011;9137;50.960;3.118;2022-08-11T11:20:38;4.00;;;2.10;;
18023;SDS011;9137;50.960;3.118;2022-08-11T11:23:11;2.58;;;2.38;;
18023;SDS011;9137;50.960;3.118;2022-08-11T11:31:55;3.25;;;2.35;;
18023;SDS011;9137;50.960;3.118;2022-08-11T11:34:41;4.30;;;2.60;;
18023;SDS011;9137;50.960;3.118;2022-08-11T11:37:28;2.78;;;2.58;;
18023;SDS011;9137;50.960;3.118;2022-08-11T11:39:58;2.80;;;2.28;;
18023;SDS011;9137;50.960;3.118;2022-08-11T11:42:26;2.38;;;2.00;;
18023;SDS011;9137;50.960;3.118;2022-08-11T11:44:54;5.45;;;2.40;;
18023;SDS011;9137;50.960;3.118;2022-08-11T11:47:22;5.45;;;2.72;;
18023;SDS011;9137;50.960;3.118;2022-08-11T11:49:51;2.63;;;2.35;;
18023;SDS011;9137;50.960;3.118;2022-08-11T11:52:19;2.60;;;2.33;;
18023;SDS011;9137;50.960;3.118;2022-08-11T11:54:48;2.75;;;2.50;;
18023;SDS011;9137;50.960;3.118;2022-08-11T11:57:19;2.63;;;2.42;;
18023;SDS011;9137;50.960;3.118;2022-08-11T12:00:05;2.70;;;2.50;;
18023;SDS011;9137;50.960;3.118;2022-08-11T12:03:01;4.45;;;2.10;;
18023;SDS011;9137;50.960;3.118;2022-08-11T12:05:32;3.03;;;2.40;;
18023;SDS011;9137;50.960;3.118;2022-08-11T12:08:01;2.55;;;2.35;;
18023;SDS011;9137;50.960;3.118;2022-08-11T12:10:38;5.93;;;2.28;;
18023;SDS011;9137;50.960;3.118;2022-08-11T12:13:08;2.50;;;2.13;;
18023;SDS011;9137;50.960;3.118;2022-08-11T12:15:53;2.57;;;2.13;;
18023;SDS011;9137;50.960;3.118;2022-08-11T12:18:20;2.53;;;2.10;;
18023;SDS011;9137;50.960;3.118;2022-08-11T12:20:47;5.30;;;2.30;;
18023;SDS011;9137;50.960;3.118;2022-08-11T12:23:15;2.58;;;2.20;;
18023;SDS011;9137;50.960;3.118;2022-08-11T12:26:01;3.10;;;2.10;;
18023;SDS011;9137;50.960;3.118;2022-08-11T12:28:45;2.83;;;2.17;;
18023;SDS011;9137;50.960;3.118;2022-08-11T12:31:13;2.70;;;2.38;;
18023;SDS011;9137;50.960;3.118;2022-08-11T12:33:40;2.20;;;2.00;;
18023;SDS011;9137;50.960;3.118;2022-08-11T12:36:08;2.10;;;1.90;;
18023;SDS011;9137;50.960;3.118;2022-08-11T12:38:40;2.60;;;2.00;;
18023;SDS011;9137;50.960;3.118;2022-08-11T12:41:11;2.42;;;1.80;;
18023;SDS011;9137;50.960;3.118;2022-08-11T12:43:56;2.45;;;2.25;;
18023;SDS011;9137;50.960;3.118;2022-08-11T12:46:43;3.72;;;2.05;;
18023;SDS011;9137;50.960;3.118;2022-08-11T12:49:12;3.55;;;2.40;;
18023;SDS011;9137;50.960;3.118;2022-08-11T12:52:01;2.72;;;2.33;;
18023;SDS011;9137;50.960;3.118;2022-08-11T12:54:30;3.40;;;2.20;;
18023;SDS011;9137;50.960;3.118;2022-08-11T12:57:05;2.17;;;2.00;;
18023;SDS011;9137;50.960;3.118;2022-08-11T13:00:02;2.43;;;2.17;;
18023;SDS011;9137;50.960;3.118;2022-08-11T13:02:47;2.40;;;2.20;;
18023;SDS011;9137;50.960;3.118;2022-08-11T13:05:33;2.75;;;2.25;;
18023;SDS011;9137;50.960;3.118;2022-08-11T13:08:01;2.92;;;2.47;;
18023;SDS011;9137;50.960;3.118;2022-08-11T13:10:31;3.60;;;2.40;;
18023;SDS011;9137;50.960;3.118;2022-08-11T13:13:17;4.40;;;2.42;;
18023;SDS011;9137;50.960;3.118;2022-08-11T13:15:45;2.67;;;1.90;;
18023;SDS011;9137;50.960;3.118;2022-08-11T13:18:14;3.40;;;2.63;;
18023;SDS011;9137;50.960;3.118;2022-08-11T13:20:42;3.70;;;2.00;;
18023;SDS011;9137;50.960;3.118;2022-08-11T13:23:12;2.22;;;2.10;;
18023;SDS011;9137;50.960;3.118;2022-08-11T13:25:41;3.22;;;2.05;;
18023;SDS011;9137;50.960;3.118;2022-08-11T13:28:09;4.72;;;2.22;;
18023;SDS011;9137;50.960;3.118;2022-08-11T13:30:38;3.58;;;2.20;;
18023;SDS011;9137;50.960;3.118;2022-08-11T13:33:23;3.13;;;2.07;;
18023;SDS011;9137;50.960;3.118;2022-08-11T13:35:52;2.40;;;2.13;;
18023;SDS011;9137;50.960;3.118;2022-08-11T13:38:20;2.63;;;2.28;;
18023;SDS011;9137;50.960;3.118;2022-08-11T13:40:50;5.97;;;2.78;;
18023;SDS011;9137;50.960;3.118;2022-08-11T13:43:18;3.03;;;2.47;;
18023;SDS011;9137;50.960;3.118;2022-08-11T13:45:48;4.18;;;2.63;;
18023;SDS011;9137;50.960;3.118;2022-08-11T13:48:37;3.58;;;2.55;;
18023;SDS011;9137;50.960;3.118;2022-08-11T13:51:06;3.88;;;2.28;;
18023;SDS011;9137;50.960;3.118;2022-08-11T13:54:03;3.03;;;2.30;;
18023;SDS011;9137;50.960;3.118;2022-08-11T13:56:32;2.53;;;2.15;;
18023;SDS011;9137;50.960;3.118;2022-08-11T13:59:00;3.78;;;2.50;;
18023;SDS011;9137;50.960;3.118;2022-08-11T14:01:30;3.90;;;2.40;;
18023;SDS011;9137;50.960;3.118;2022-08-11T14:04:02;4.95;;;2.60;;
18023;SDS011;9137;50.960;3.118;2022-08-11T14:06:33;2.95;;;2.50;;
18023;SDS011;9137;50.960;3.118;2022-08-11T14:09:02;4.65;;;2.70;;
18023;SDS011;9137;50.960;3.118;2022-08-11T14:11:33;3.13;;;2.85;;
18023;SDS011;9137;50.960;3.118;2022-08-11T14:14:20;3.90;;;2.60;;
18023;SDS011;9137;50.960;3.118;2022-08-11T14:16:53;2.47;;;2.28;;
18023;SDS011;9137;50.960;3.118;2022-08-11T14:19:23;3.10;;;2.80;;
18023;SDS011;9137;50.960;3.118;2022-08-11T14:21:52;4.60;;;3.00;;
18023;SDS011;9137;50.960;3.118;2022-08-11T14:24:36;4.10;;;3.03;;
18023;SDS011;9137;50.960;3.118;2022-08-11T14:27:04;4.68;;;2.65;;
18023;SDS011;9137;50.960;3.118;2022-08-11T14:29:32;3.50;;;2.72;;
18023;SDS011;9137;50.960;3.118;2022-08-11T14:32:05;3.60;;;2.30;;
18023;SDS011;9137;50.960;3.118;2022-08-11T14:34:33;2.70;;;2.40;;
18023;SDS011;9137;50.960;3.118;2022-08-11T14:37:02;3.90;;;2.70;;
18023;SDS011;9137;50.960;3.118;2022-08-11T14:39:33;2.90;;;2.40;;
18023;SDS011;9137;50.960;3.118;2022-08-11T14:42:03;3.10;;;2.45;;
18023;SDS011;9137;50.960;3.118;2022-08-11T14:44:50;5.15;;;2.47;;
18023;SDS011;9137;50.960;3.118;2022-08-11T14:47:41;4.53;;;3.00;;
18023;SDS011;9137;50.960;3.118;2022-08-11T14:50:11;3.10;;;2.80;;
18023;SDS011;9137;50.960;3.118;2022-08-11T14:52:42;2.70;;;2.42;;
18023;SDS011;9137;50.960;3.118;2022-08-11T14:55:13;3.30;;;2.55;;
18023;SDS011;9137;50.960;3.118;2022-08-11T14:57:59;4.97;;;2.78;;
18023;SDS011;9137;50.960;3.118;2022-08-11T15:00:27;3.47;;;3.17;;
18023;SDS011;9137;50.960;3.118;2022-08-11T15:02:56;5.25;;;3.20;;
18023;SDS011;9137;50.960;3.118;2022-08-11T15:05:36;3.30;;;3.00;;
18023;SDS011;9137;50.960;3.118;2022-08-11T15:08:12;3.67;;;3.13;;
18023;SDS011;9137;50.960;3.118;2022-08-11T15:10:39;4.63;;;3.10;;
18023;SDS011;9137;50.960;3.118;2022-08-11T15:13:06;3.60;;;3.00;;
18023;SDS011;9137;50.960;3.118;2022-08-11T15:15:35;2.67;;;2.47;;
18023;SDS011;9137;50.960;3.118;2022-08-11T15:18:22;3.70;;;2.70;;
18023;SDS011;9137;50.960;3.118;2022-08-11T15:20:50;3.55;;;2.60;;
18023;SDS011;9137;50.960;3.118;2022-08-11T15:23:37;3.50;;;2.65;;
18023;SDS011;9137;50.960;3.118;2022-08-11T15:26:24;2.85;;;2.60;;
18023;SDS011;9137;50.960;3.118;2022-08-11T15:29:14;2.55;;;2.40;;
18023;SDS011;9137;50.960;3.118;2022-08-11T15:32:03;3.42;;;3.05;;
18023;SDS011;9137;50.960;3.118;2022-08-11T15:34:52;3.10;;;2.67;;
18023;SDS011;9137;50.960;3.118;2022-08-11T15:37:40;3.00;;;2.50;;
18023;SDS011;9137;50.960;3.118;2022-08-11T15:40:10;3.30;;;2.40;;
18023;SDS011;9137;50.960;3.118;2022-08-11T15:43:01;3.35;;;2.88;;
18023;SDS011;9137;50.960;3.118;2022-08-11T15:45:51;4.43;;;2.95;;
18023;SDS011;9137;50.960;3.118;2022-08-11T15:48:22;4.90;;;2.80;;
18023;SDS011;9137;50.960;3.118;2022-08-11T15:50:57;3.63;;;2.80;;
18023;SDS011;9137;50.960;3.118;2022-08-11T15:53:34;4.30;;;2.80;;
18023;SDS011;9137;50.960;3.118;2022-08-11T15:56:06;2.72;;;2.50;;
18023;SDS011;9137;50.960;3.118;2022-08-11T15:58:37;4.13;;;2.80;;
18023;SDS011;9137;50.960;3.118;2022-08-11T16:01:25;3.60;;;2.97;;
18023;SDS011;9137;50.960;3.118;2022-08-11T16:04:13;3.13;;;2.83;;
18023;SDS011;9137;50.960;3.118;2022-08-11T16:06:48;4.43;;;2.88;;
18023;SDS011;9137;50.960;3.118;2022-08-11T16:09:22;2.83;;;2.63;;
18023;SDS011;9137;50.960;3.118;2022-08-11T16:11:53;2.95;;;2.75;;
18023;SDS011;9137;50.960;3.118;2022-08-11T16:14:27;3.80;;;3.20;;
18023;SDS011;9137;50.960;3.118;2022-08-11T16:17:15;3.50;;;2.67;;
18023;SDS011;9137;50.960;3.118;2022-08-11T16:19:45;3.75;;;3.10;;
18023;SDS011;9137;50.960;3.118;2022-08-11T16:22:20;3.28;;;2.67;;
18023;SDS011;9137;50.960;3.118;2022-08-11T16:24:58;3.78;;;3.30;;
18023;SDS011;9137;50.960;3.118;2022-08-11T16:27:26;5.20;;;3.03;;
18023;SDS011;9137;50.960;3.118;2022-08-11T16:29:55;2.97;;;2.72;;
18023;SDS011;9137;50.960;3.118;2022-08-11T16:32:23;2.92;;;2.63;;
18023;SDS011;9137;50.960;3.118;2022-08-11T16:34:52;4.70;;;2.77;;
18023;SDS011;9137;50.960;3.118;2022-08-11T16:37:42;4.70;;;2.88;;
18023;SDS011;9137;50.960;3.118;2022-08-11T16:40:27;3.60;;;2.90;;
18023;SDS011;9137;50.960;3.118;2022-08-11T16:42:55;4.95;;;2.90;;
18023;SDS011;9137;50.960;3.118;2022-08-11T16:45:41;3.33;;;2.60;;
18023;SDS011;9137;50.960;3.118;2022-08-11T16:48:27;3.90;;;2.60;;
18023;SDS011;9137;50.960;3.118;2022-08-11T16:50:57;3.90;;;2.58;;
18023;SDS011;9137;50.960;3.118;2022-08-11T16:53:26;3.88;;;2.85;;
18023;SDS011;9137;50.960;3.118;2022-08-11T16:55:54;2.97;;;2.63;;
18023;SDS011;9137;50.960;3.118;2022-08-11T16:58:24;3.30;;;2.33;;
18023;SDS011;9137;50.960;3.118;2022-08-11T17:01:10;2.43;;;2.23;;
18023;SDS011;9137;50.960;3.118;2022-08-11T17:03:40;2.80;;;2.58;;
18023;SDS011;9137;50.960;3.118;2022-08-11T17:06:29;3.50;;;2.50;;